Andesborg — PCLC — position and weather

sailwx.info

Track history (hours):
 
Tides and Currents Weather Stations Pressure Air Temp Water Temp Dewpoint Dewpoint Depression Visibility Wind Speed Wind Dir Waves Ship Positions

Andesborg

Last reported at 2014-Sep-01 23:33 UTC. Time now 2014-Sep-02 00:01 UTC.
Position N 51°53' E 004°25'.

Length 142 m; draft 8.3 m.

Type: Ship. MMSI: 246797000.

Date/timePositionNaut miles runAvg speedWind from/ knotsBaromVisibWave heightAir tempDewpointWater temp
2014-Sep-01 23:33N 51°53' E 004°25'0 0.0
2014-Sep-01 22:33N 51°53' E 004°25'0 0.0
2014-Sep-01 21:33N 51°53' E 004°25'0 0.0
2014-Sep-01 20:33N 51°53' E 004°25'0 0.0
2014-Sep-01 19:33N 51°53' E 004°25'0 0.0
2014-Sep-01 18:30N 51°53' E 004°25'0 0.0
2014-Sep-01 17:32N 51°53' E 004°25'0 0.0
2014-Sep-01 16:33N 51°53' E 004°25'0 0.0
2014-Sep-01 15:30N 51°53' E 004°25'0 0.0
2014-Sep-01 14:30N 51°53' E 004°25'0 0.0
2014-Sep-01 13:30N 51°53' E 004°25'0 0.0
2014-Sep-01 12:32N 51°53' E 004°25'0 0.0
2014-Sep-01 11:33N 51°53' E 004°25'0 0.0
2014-Sep-01 10:33N 51°53' E 004°25'0 0.0
2014-Sep-01 09:33N 51°53' E 004°25'0 0.0
2014-Sep-01 08:30N 51°53' E 004°25'0 0.0
2014-Sep-01 07:32N 51°53' E 004°25'0 0.0
2014-Sep-01 06:32N 51°53' E 004°25'0 0.0
2014-Sep-01 05:27N 51°53' E 004°25'0 0.0
2014-Sep-01 04:33N 51°53' E 004°25'0 0.0
2014-Sep-01 03:33N 51°53' E 004°25'0 0.0
2014-Sep-01 02:33N 51°53' E 004°25'0 0.0
2014-Sep-01 01:33N 51°53' E 004°25'0 0.0
2014-Sep-01 00:33N 51°53' E 004°25'0 0.0
2014-Aug-31 23:33N 51°53' E 004°25'0 0.0
2014-Aug-31 22:34N 51°53' E 004°25'7 6.5
2014-Aug-31 21:34N 51°55' E 004°15'1110.5
2014-Aug-31 20:34N 51°60' E 004°00'1712.7
2014-Aug-31 19:13N 51°57' E 003°33'3913.9
2014-Aug-31 16:23N 51°42' E 002°34'1214.7
2014-Aug-31 15:33N 51°32' E 002°22'1614.6
2014-Aug-31 14:27N 51°18' E 002°08'1314.5
2014-Aug-31 13:33N 51°09' E 001°53'7 6.9
2014-Aug-31 12:33N 51°02' E 001°54'1513.9
2014-Aug-31 11:30N 51°04' E 002°17'2 2.2
2014-Aug-31 10:33N 51°03' E 002°20'1 0.8
2014-Aug-31 09:32N 51°03' E 002°21'0 0.0
2014-Aug-31 08:32N 51°03' E 002°21'0 0.0
2014-Aug-31 07:26N 51°03' E 002°21'0 0.0
2014-Aug-31 06:31N 51°03' E 002°21'0 0.0
2014-Aug-31 05:31N 51°03' E 002°21'0 0.0
2014-Aug-31 04:33N 51°03' E 002°21'0 0.0
2014-Aug-31 03:33N 51°03' E 002°21'0 0.0
2014-Aug-31 02:33N 51°03' E 002°21'0 0.0
2014-Aug-31 01:30N 51°03' E 002°21'0 0.0
2014-Aug-31 00:32N 51°03' E 002°21'0 0.0
2014-Aug-30 23:33N 51°03' E 002°21'0 0.0
2014-Aug-30 22:31N 51°03' E 002°21'0 0.0
2014-Aug-30 21:30N 51°03' E 002°21'0 0.0
2014-Aug-30 20:32N 51°03' E 002°21'0 0.0
2014-Aug-30 19:29N 51°03' E 002°21'0 0.0
2014-Aug-30 18:31N 51°03' E 002°21'0 0.0
2014-Aug-30 17:33N 51°03' E 002°21'0 0.0
2014-Aug-30 16:33N 51°03' E 002°21'0 0.0
2014-Aug-30 15:22N 51°03' E 002°21'0 0.0
2014-Aug-30 14:33N 51°03' E 002°21'0 0.0
2014-Aug-30 13:33N 51°03' E 002°21'0 0.0
2014-Aug-30 12:33N 51°03' E 002°21'0 0.0
2014-Aug-30 11:27N 51°03' E 002°21'0 0.0
2014-Aug-30 10:33N 51°03' E 002°21'0 0.0
2014-Aug-30 09:32N 51°03' E 002°21'1 0.8
2014-Aug-30 08:33N 51°03' E 002°20'1 1.2
2014-Aug-30 07:33N 51°04' E 002°19'1512.0
2014-Aug-30 06:20N 51°02' E 001°56'1012.8
2014-Aug-30 05:33N 51°01' E 001°40'3912.7
2014-Aug-30 02:26N 50°30' E 001°01'1113.1
2014-Aug-30 01:33N 50°26' E 000°44'1513.1
2014-Aug-30 00:25N 50°22' E 000°22'  
2014-Aug-24 12:06N 38°04' W 023°41'712.1
2014-Aug-24 11:33N 38°01' W 023°49'1211.9
2014-Aug-24 10:33N 37°58' W 024°03'1211.5
2014-Aug-24 09:33N 37°53' W 024°17'1211.8
2014-Aug-24 08:33N 37°49' W 024°31'1111.5
2014-Aug-24 07:33N 37°45' W 024°45'1111.2
2014-Aug-24 06:34N 37°42' W 024°58'1110.7
2014-Aug-24 05:33N 37°40' W 025°11'1110.8
2014-Aug-24 04:33N 37°39' W 025°25'1110.6
2014-Aug-24 03:33N 37°40' W 025°38'1110.7
2014-Aug-24 02:34N 37°41' W 025°52'1111.4
2014-Aug-24 01:33N 37°37' W 026°05'1110.7
2014-Aug-24 00:33N 37°34' W 026°18'1111.0
2014-Aug-23 23:33N 37°29' W 026°31'1111.4
2014-Aug-23 22:33N 37°25' W 026°44'1111.1
2014-Aug-23 21:33N 37°21' W 026°57'1110.9
2014-Aug-23 20:33N 37°17' W 027°10'1111.1
2014-Aug-23 19:33N 37°13' W 027°23'17310.7
2014-Aug-23 03:22N 36°10' W 030°44'  
Track history (hours):
 
Tides and Currents Weather Stations Pressure Air Temp Water Temp Dewpoint Dewpoint Depression Visibility Wind Speed Wind Dir Waves Ship Positions

Andesborg

Last reported at 2014-Sep-01 23:33 UTC. Time now 2014-Sep-02 00:01 UTC.
Position N 51°53' E 004°25'.

Length 142 m; draft 8.3 m.

Type: Ship. MMSI: 246797000.

Date/timePositionNaut miles runAvg speedWind from/ knotsBaromVisibWave heightAir tempDewpointWater temp
2014-Sep-01 23:33N 51°53' E 004°25'0 0.0
2014-Sep-01 22:33N 51°53' E 004°25'0 0.0
2014-Sep-01 21:33N 51°53' E 004°25'0 0.0
2014-Sep-01 20:33N 51°53' E 004°25'0 0.0
2014-Sep-01 19:33N 51°53' E 004°25'0 0.0
2014-Sep-01 18:30N 51°53' E 004°25'0 0.0
2014-Sep-01 17:32N 51°53' E 004°25'0 0.0
2014-Sep-01 16:33N 51°53' E 004°25'0 0.0
2014-Sep-01 15:30N 51°53' E 004°25'0 0.0
2014-Sep-01 14:30N 51°53' E 004°25'0 0.0
2014-Sep-01 13:30N 51°53' E 004°25'0 0.0
2014-Sep-01 12:32N 51°53' E 004°25'0 0.0
2014-Sep-01 11:33N 51°53' E 004°25'0 0.0
2014-Sep-01 10:33N 51°53' E 004°25'0 0.0
2014-Sep-01 09:33N 51°53' E 004°25'0 0.0
2014-Sep-01 08:30N 51°53' E 004°25'0 0.0
2014-Sep-01 07:32N 51°53' E 004°25'0 0.0
2014-Sep-01 06:32N 51°53' E 004°25'0 0.0
2014-Sep-01 05:27N 51°53' E 004°25'0 0.0
2014-Sep-01 04:33N 51°53' E 004°25'0 0.0
2014-Sep-01 03:33N 51°53' E 004°25'0 0.0
2014-Sep-01 02:33N 51°53' E 004°25'0 0.0
2014-Sep-01 01:33N 51°53' E 004°25'0 0.0
2014-Sep-01 00:33N 51°53' E 004°25'0 0.0
2014-Aug-31 23:33N 51°53' E 004°25'0 0.0
2014-Aug-31 22:34N 51°53' E 004°25'7 6.5
2014-Aug-31 21:34N 51°55' E 004°15'1110.5
2014-Aug-31 20:34N 51°60' E 004°00'1712.7
2014-Aug-31 19:13N 51°57' E 003°33'3913.9
2014-Aug-31 16:23N 51°42' E 002°34'1214.7
2014-Aug-31 15:33N 51°32' E 002°22'1614.6
2014-Aug-31 14:27N 51°18' E 002°08'1314.5
2014-Aug-31 13:33N 51°09' E 001°53'7 6.9
2014-Aug-31 12:33N 51°02' E 001°54'1513.9
2014-Aug-31 11:30N 51°04' E 002°17'2 2.2
2014-Aug-31 10:33N 51°03' E 002°20'1 0.8
2014-Aug-31 09:32N 51°03' E 002°21'0 0.0
2014-Aug-31 08:32N 51°03' E 002°21'0 0.0
2014-Aug-31 07:26N 51°03' E 002°21'0 0.0
2014-Aug-31 06:31N 51°03' E 002°21'0 0.0
2014-Aug-31 05:31N 51°03' E 002°21'0 0.0
2014-Aug-31 04:33N 51°03' E 002°21'0 0.0
2014-Aug-31 03:33N 51°03' E 002°21'0 0.0
2014-Aug-31 02:33N 51°03' E 002°21'0 0.0
2014-Aug-31 01:30N 51°03' E 002°21'0 0.0
2014-Aug-31 00:32N 51°03' E 002°21'0 0.0
2014-Aug-30 23:33N 51°03' E 002°21'0 0.0
2014-Aug-30 22:31N 51°03' E 002°21'0 0.0
2014-Aug-30 21:30N 51°03' E 002°21'0 0.0
2014-Aug-30 20:32N 51°03' E 002°21'0 0.0
2014-Aug-30 19:29N 51°03' E 002°21'0 0.0
2014-Aug-30 18:31N 51°03' E 002°21'0 0.0
2014-Aug-30 17:33N 51°03' E 002°21'0 0.0
2014-Aug-30 16:33N 51°03' E 002°21'0 0.0
2014-Aug-30 15:22N 51°03' E 002°21'0 0.0
2014-Aug-30 14:33N 51°03' E 002°21'0 0.0
2014-Aug-30 13:33N 51°03' E 002°21'0 0.0
2014-Aug-30 12:33N 51°03' E 002°21'0 0.0
2014-Aug-30 11:27N 51°03' E 002°21'0 0.0
2014-Aug-30 10:33N 51°03' E 002°21'0 0.0
2014-Aug-30 09:32N 51°03' E 002°21'1 0.8
2014-Aug-30 08:33N 51°03' E 002°20'1 1.2
2014-Aug-30 07:33N 51°04' E 002°19'1512.0
2014-Aug-30 06:20N 51°02' E 001°56'1012.8
2014-Aug-30 05:33N 51°01' E 001°40'3912.7
2014-Aug-30 02:26N 50°30' E 001°01'1113.1
2014-Aug-30 01:33N 50°26' E 000°44'1513.1
2014-Aug-30 00:25N 50°22' E 000°22'  
2014-Aug-24 12:06N 38°04' W 023°41'712.1
2014-Aug-24 11:33N 38°01' W 023°49'1211.9
2014-Aug-24 10:33N 37°58' W 024°03'1211.5
2014-Aug-24 09:33N 37°53' W 024°17'1211.8
2014-Aug-24 08:33N 37°49' W 024°31'1111.5
2014-Aug-24 07:33N 37°45' W 024°45'1111.2
2014-Aug-24 06:34N 37°42' W 024°58'1110.7
2014-Aug-24 05:33N 37°40' W 025°11'1110.8
2014-Aug-24 04:33N 37°39' W 025°25'1110.6
2014-Aug-24 03:33N 37°40' W 025°38'1110.7
2014-Aug-24 02:34N 37°41' W 025°52'1111.4
2014-Aug-24 01:33N 37°37' W 026°05'1110.7
2014-Aug-24 00:33N 37°34' W 026°18'1111.0
2014-Aug-23 23:33N 37°29' W 026°31'1111.4
2014-Aug-23 22:33N 37°25' W 026°44'1111.1
2014-Aug-23 21:33N 37°21' W 026°57'1110.9
2014-Aug-23 20:33N 37°17' W 027°10'1111.1
2014-Aug-23 19:33N 37°13' W 027°23'17310.7
2014-Aug-23 03:22N 36°10' W 030°44'  

Dump ship's entire track history